createdAt,value
2023-04-02T00:00:09.860Z,3.14
2023-04-02T00:02:57.452Z,3.16
2023-04-02T00:05:51.284Z,3.20
2023-04-02T00:08:27.238Z,3.22
2023-04-02T00:11:00.270Z,3.23
2023-04-02T00:13:32.502Z,3.24
2023-04-02T00:16:01.355Z,3.25
2023-04-02T00:18:30.859Z,3.26
2023-04-02T00:21:10.701Z,3.27
2023-04-02T00:23:40.393Z,3.27
2023-04-02T00:26:30.446Z,3.26
2023-04-02T00:29:02.165Z,3.25
2023-04-02T00:31:38.567Z,3.23
2023-04-02T00:34:07.877Z,3.22
2023-04-02T00:36:36.441Z,3.21
2023-04-02T00:39:11.255Z,3.21
2023-04-02T00:41:47.395Z,3.21
2023-04-02T00:44:22.040Z,3.21
2023-04-02T00:46:50.897Z,3.19
2023-04-02T00:49:33.796Z,3.16
2023-04-02T00:52:04.048Z,3.13
2023-04-02T00:54:37.382Z,3.12
2023-04-02T00:57:11.458Z,3.11
2023-04-02T00:59:55.286Z,3.12
2023-04-02T01:02:31.781Z,3.13
2023-04-02T01:05:22.087Z,3.12
2023-04-02T01:07:57.416Z,3.10
2023-04-02T01:10:50.346Z,3.07
2023-04-02T01:13:34.190Z,3.03
2023-04-02T01:16:06.209Z,2.97
2023-04-02T01:18:51.842Z,2.91
2023-04-02T01:21:38.254Z,2.86
2023-04-02T01:24:08.852Z,2.81
2023-04-02T01:26:37.891Z,2.76
2023-04-02T01:29:07.397Z,2.71
2023-04-02T01:31:36.152Z,2.64
2023-04-02T01:34:07.552Z,2.57
2023-04-02T01:36:54.128Z,2.52
2023-04-02T01:39:50.748Z,2.52
2023-04-02T01:42:29.779Z,2.51
2023-04-02T01:45:12.445Z,2.50
2023-04-02T01:47:43.250Z,2.48
2023-04-02T01:50:37.366Z,2.47
2023-04-02T01:53:08.853Z,2.45
2023-04-02T01:55:48.957Z,2.44
2023-04-02T01:58:20.205Z,2.44
2023-04-02T02:00:52.528Z,2.45
2023-04-02T02:03:21.934Z,2.46
2023-04-02T02:05:51.129Z,2.49
2023-04-02T02:08:59.029Z,2.50
2023-04-02T02:11:28.747Z,2.55
2023-04-02T02:13:59.796Z,2.62
2023-04-02T02:16:30.395Z,2.73
2023-04-02T02:19:02.956Z,2.83
2023-04-02T02:21:42.513Z,2.94
2023-04-02T02:24:23.129Z,3.06
2023-04-02T02:27:03.796Z,3.17
2023-04-02T02:29:35.628Z,3.28
2023-04-02T02:32:04.874Z,3.35
2023-04-02T02:34:39.007Z,3.42
2023-04-02T02:37:15.179Z,3.45
2023-04-02T02:39:44.855Z,3.47
2023-04-02T02:42:19.887Z,3.48
2023-04-02T02:44:49.051Z,3.51
2023-04-02T02:47:39.566Z,3.53
2023-04-02T02:50:31.836Z,3.53
2023-04-02T02:53:05.285Z,3.57
2023-04-02T02:55:37.090Z,3.60
2023-04-02T02:58:41.086Z,3.62
2023-04-02T03:01:22.622Z,3.62
2023-04-02T03:03:54.333Z,3.62
2023-04-02T03:06:23.289Z,3.63
2023-04-02T03:09:11.121Z,3.65
2023-04-02T03:12:08.998Z,3.68
2023-04-02T03:14:46.922Z,3.74
2023-04-02T03:17:35.927Z,3.81
2023-04-02T03:20:35.983Z,3.96
2023-04-02T03:23:27.199Z,4.04
2023-04-02T03:26:02.049Z,4.03
2023-04-02T03:28:32.563Z,4.00
2023-04-02T03:31:04.874Z,3.97
2023-04-02T03:34:02.390Z,3.92
2023-04-02T03:36:34.004Z,3.88
2023-04-02T03:39:13.698Z,3.85
2023-04-02T03:41:51.916Z,3.83
2023-04-02T03:44:28.345Z,3.86
2023-04-02T03:47:04.211Z,3.92
2023-04-02T03:49:46.878Z,3.97
2023-04-02T03:52:20.562Z,4.03
2023-04-02T03:54:54.163Z,4.11
2023-04-02T03:57:40.748Z,4.22
2023-04-02T04:00:58.686Z,4.33
2023-04-02T04:03:51.034Z,4.47
2023-04-02T04:06:30.665Z,4.58
2023-04-02T04:09:11.565Z,4.69
2023-04-02T04:11:44.932Z,4.77
2023-04-02T04:14:20.633Z,4.85
2023-04-02T04:17:09.567Z,4.92
2023-04-02T04:19:56.812Z,5.00
2023-04-02T04:22:33.532Z,5.08
2023-04-02T04:25:34.050Z,5.15
2023-04-02T04:28:31.669Z,5.20
2023-04-02T04:31:04.215Z,5.24
2023-04-02T04:33:43.769Z,5.25
2023-04-02T04:36:21.680Z,5.27
2023-04-02T04:38:55.471Z,5.29
2023-04-02T04:41:27.329Z,5.31
2023-04-02T04:44:07.347Z,5.35
2023-04-02T04:46:39.705Z,5.40
2023-04-02T04:49:17.680Z,5.50
2023-04-02T04:51:56.989Z,5.62
2023-04-02T04:54:27.244Z,5.76
2023-04-02T04:57:02.688Z,5.86
2023-04-02T04:59:43.170Z,5.96
2023-04-02T05:02:20.169Z,6.03
2023-04-02T05:04:52.213Z,6.11
2023-04-02T05:07:23.624Z,6.19
2023-04-02T05:10:17.497Z,6.28
2023-04-02T05:12:51.226Z,6.39
2023-04-02T05:15:29.454Z,6.46
2023-04-02T05:18:18.406Z,6.53
2023-04-02T05:20:54.478Z,6.61
2023-04-02T05:23:28.292Z,6.66
2023-04-02T05:26:06.986Z,6.72
2023-04-02T05:28:43.650Z,6.83
2023-04-02T05:31:17.656Z,6.93
2023-04-02T05:33:48.229Z,7.00
2023-04-02T05:36:22.821Z,7.05
2023-04-02T05:38:54.306Z,7.11
2023-04-02T05:41:44.730Z,7.13
2023-04-02T05:44:31.760Z,7.15
2023-04-02T05:47:14.692Z,7.15
2023-04-02T05:49:47.505Z,7.17
2023-04-02T05:52:20.993Z,7.22
2023-04-02T05:54:52.496Z,7.26
2023-04-02T05:57:32.486Z,7.32
2023-04-02T06:00:37.925Z,7.38
2023-04-02T06:03:27.600Z,7.42
2023-04-02T06:05:59.719Z,7.49
2023-04-02T06:08:38.563Z,7.55
2023-04-02T06:11:17.770Z,7.64
2023-04-02T06:13:47.178Z,7.70
2023-04-02T06:16:16.489Z,7.76
2023-04-02T06:18:52.673Z,7.85
2023-04-02T06:21:21.824Z,7.91
2023-04-02T06:23:57.647Z,7.93
2023-04-02T06:26:32.599Z,7.95
2023-04-02T06:29:05.848Z,7.98
2023-04-02T06:31:38.735Z,8.05
2023-04-02T06:34:15.834Z,8.14
2023-04-02T06:37:28.646Z,8.25
2023-04-02T06:40:33.942Z,8.27
2023-04-02T06:43:19.155Z,8.27
2023-04-02T06:46:15.688Z,8.30
2023-04-02T06:49:14.970Z,8.42
2023-04-02T06:51:44.790Z,8.54
2023-04-02T06:54:15.449Z,8.63
2023-04-02T06:56:47.087Z,8.70
2023-04-02T06:59:20.521Z,8.75
2023-04-02T07:01:52.849Z,8.79
2023-04-02T07:04:22.022Z,8.80
2023-04-02T07:06:53.706Z,8.85
2023-04-02T07:09:26.305Z,8.90
2023-04-02T07:11:57.038Z,9.00
2023-04-02T07:14:25.824Z,9.12
2023-04-02T07:16:54.616Z,9.20
2023-04-02T07:19:23.311Z,9.33
2023-04-02T07:21:56.208Z,9.49
2023-04-02T07:24:26.146Z,9.60
2023-04-02T07:26:54.641Z,9.69
2023-04-02T07:29:23.165Z,9.76
2023-04-02T07:31:53.191Z,9.86
2023-04-02T07:34:21.815Z,9.98
2023-04-02T07:36:52.805Z,10.11
2023-04-02T07:39:21.082Z,10.30
2023-04-02T07:41:58.870Z,10.51
2023-04-02T07:44:27.964Z,10.73
2023-04-02T07:46:56.929Z,10.89
2023-04-02T07:49:30.746Z,11.04
2023-04-02T07:51:59.150Z,11.25
2023-04-02T07:54:28.093Z,11.55
2023-04-02T07:56:57.173Z,11.91
2023-04-02T07:59:25.625Z,12.13
2023-04-02T08:01:54.653Z,12.25
2023-04-02T08:04:23.758Z,12.42
2023-04-02T08:06:53.445Z,12.62
2023-04-02T08:09:22.345Z,12.73
2023-04-02T08:11:55.341Z,12.70
2023-04-02T08:14:23.849Z,12.74
2023-04-02T08:16:53.982Z,12.75
2023-04-02T08:19:25.386Z,12.82
2023-04-02T08:21:54.697Z,12.86
2023-04-02T08:24:23.646Z,12.87
2023-04-02T08:26:54.340Z,12.89
2023-04-02T08:29:22.715Z,12.98
2023-04-02T08:31:51.928Z,13.13
2023-04-02T08:34:20.953Z,13.44
2023-04-02T08:36:51.684Z,13.88
2023-04-02T08:39:20.578Z,14.33
2023-04-02T08:42:33.912Z,14.76
2023-04-02T08:45:29.525Z,15.14
2023-04-02T08:48:00.337Z,15.52
2023-04-02T08:50:33.858Z,15.66
2023-04-02T08:53:07.990Z,15.86
2023-04-02T08:55:52.939Z,16.20
2023-04-02T08:58:43.848Z,16.41
2023-04-02T09:01:17.879Z,16.60
2023-04-02T09:03:47.748Z,16.67
2023-04-02T09:06:18.513Z,16.65
2023-04-02T09:08:48.229Z,16.79
2023-04-02T09:11:49.683Z,17.09
2023-04-02T09:14:40.678Z,17.24
2023-04-02T09:17:21.265Z,17.13
2023-04-02T09:19:59.352Z,16.84
2023-04-02T09:22:32.237Z,16.81
2023-04-02T09:25:03.176Z,17.10
2023-04-02T09:27:36.885Z,17.34
2023-04-02T09:30:30.567Z,17.33
2023-04-02T09:33:02.394Z,17.09
2023-04-02T09:35:32.749Z,16.93
2023-04-02T09:38:10.662Z,16.78
2023-04-02T09:40:59.298Z,16.54
2023-04-02T09:43:29.810Z,16.35
2023-04-02T09:46:13.979Z,16.14
2023-04-02T09:48:53.850Z,15.80
2023-04-02T09:51:27.325Z,15.57
2023-04-02T09:54:05.074Z,15.61
2023-04-02T09:56:35.711Z,15.72
2023-04-02T09:59:04.254Z,15.87
2023-04-02T10:01:39.099Z,16.10
2023-04-02T10:04:30.746Z,16.33
2023-04-02T10:06:59.378Z,16.63
2023-04-02T10:09:30.734Z,16.75
2023-04-02T10:12:00.150Z,16.84
2023-04-02T10:14:43.238Z,16.77
2023-04-02T10:17:21.950Z,16.63
2023-04-02T10:19:56.202Z,16.46
2023-04-02T10:22:27.905Z,16.24
2023-04-02T10:24:56.564Z,15.98
2023-04-02T10:27:38.215Z,15.73
2023-04-02T10:30:15.102Z,15.52
2023-04-02T10:32:57.056Z,15.65
2023-04-02T10:35:52.785Z,15.84
2023-04-02T10:38:53.772Z,16.10
2023-04-02T10:41:36.185Z,16.33
2023-04-02T10:44:27.685Z,16.41
2023-04-02T10:47:09.795Z,16.49
2023-04-02T10:49:44.485Z,16.47
2023-04-02T10:52:42.906Z,16.31
2023-04-02T10:55:16.103Z,15.99
2023-04-02T10:57:46.376Z,15.74
2023-04-02T11:00:20.689Z,15.46
2023-04-02T11:02:56.555Z,15.20
2023-04-02T11:05:48.036Z,15.03
2023-04-02T11:08:36.558Z,14.95
2023-04-02T11:11:26.669Z,14.96
2023-04-02T11:14:29.539Z,14.95
2023-04-02T11:17:05.384Z,14.84
2023-04-02T11:19:34.380Z,14.68
2023-04-02T11:22:06.967Z,14.55
2023-04-02T11:24:49.049Z,14.49
2023-04-02T11:27:25.785Z,14.49
2023-04-02T11:30:02.826Z,14.39
2023-04-02T11:32:39.773Z,14.25
2023-04-02T11:35:41.475Z,14.22
2023-04-02T11:38:12.082Z,14.20
2023-04-02T11:40:46.357Z,14.21
2023-04-02T11:43:33.154Z,14.24
2023-04-02T11:46:09.123Z,14.23
2023-04-02T11:48:37.459Z,14.25
2023-04-02T11:51:21.463Z,14.24
2023-04-02T11:53:58.693Z,14.28
2023-04-02T11:56:39.853Z,14.31
2023-04-02T11:59:14.194Z,14.33
2023-04-02T12:01:52.624Z,14.34
2023-04-02T12:04:39.808Z,14.41
2023-04-02T12:07:17.648Z,14.46
2023-04-02T12:09:58.185Z,14.54
2023-04-02T12:12:29.222Z,14.68
2023-04-02T12:14:58.618Z,14.88
2023-04-02T12:17:37.051Z,15.10
2023-04-02T12:20:27.474Z,15.27
2023-04-02T12:22:56.286Z,15.44
2023-04-02T12:25:31.599Z,15.60
2023-04-02T12:28:18.788Z,15.65
2023-04-02T12:30:47.924Z,15.66
2023-04-02T12:33:20.683Z,15.65
2023-04-02T12:35:53.219Z,15.59
2023-04-02T12:38:28.266Z,15.50
2023-04-02T12:41:01.543Z,15.46
2023-04-02T12:43:31.815Z,15.44
2023-04-02T12:46:02.414Z,15.36
2023-04-02T12:48:30.997Z,15.34
2023-04-02T12:50:59.623Z,15.37
2023-04-02T12:53:51.316Z,15.40
2023-04-02T12:56:21.840Z,15.37
2023-04-02T12:58:59.743Z,15.29
2023-04-02T13:01:30.010Z,15.16
2023-04-02T13:04:08.761Z,15.07
2023-04-02T13:06:38.954Z,14.97
2023-04-02T13:09:34.444Z,14.91
2023-04-02T13:12:03.632Z,14.83
2023-04-02T13:14:33.125Z,14.76
2023-04-02T13:17:01.714Z,14.68
2023-04-02T13:19:31.995Z,14.63
2023-04-02T13:22:01.402Z,14.54
2023-04-02T13:24:31.833Z,14.43
2023-04-02T13:27:01.332Z,14.30
2023-04-02T13:29:30.941Z,14.21
2023-04-02T13:32:01.178Z,14.11
2023-04-02T13:34:29.878Z,14.02
2023-04-02T13:37:03.510Z,13.96
2023-04-02T13:39:32.734Z,13.91
2023-04-02T13:42:02.503Z,13.88
2023-04-02T13:44:34.203Z,13.84
2023-04-02T13:47:02.515Z,13.81
2023-04-02T13:49:33.071Z,13.79
2023-04-02T13:52:03.832Z,13.77
2023-04-02T13:54:48.948Z,13.75
2023-04-02T13:57:17.955Z,13.69
2023-04-02T13:59:46.402Z,13.63
2023-04-02T14:02:19.054Z,13.58
2023-04-02T14:04:52.593Z,13.53
2023-04-02T14:07:21.869Z,13.44
2023-04-02T14:10:36.864Z,13.37
2023-04-02T14:13:08.404Z,13.28
2023-04-02T14:16:08.863Z,13.21
2023-04-02T14:18:53.335Z,13.14
2023-04-02T14:21:29.285Z,13.08
2023-04-02T14:23:57.727Z,13.02
2023-04-02T14:26:41.943Z,12.97
2023-04-02T14:29:13.466Z,12.91
2023-04-02T14:31:49.907Z,12.87
2023-04-02T14:34:40.582Z,12.82
2023-04-02T14:37:23.396Z,12.78
2023-04-02T14:40:29.674Z,12.72
2023-04-02T14:43:02.317Z,12.66
2023-04-02T14:45:37.369Z,12.60
2023-04-02T14:48:28.269Z,12.56
2023-04-02T14:51:00.162Z,12.51
2023-04-02T14:53:37.498Z,12.45
2023-04-02T14:56:06.378Z,12.38
2023-04-02T14:58:38.396Z,12.32
2023-04-02T15:01:10.600Z,12.23
2023-04-02T15:03:50.179Z,12.13
2023-04-02T15:06:24.620Z,12.03
2023-04-02T15:09:09.404Z,11.93
2023-04-02T15:11:39.507Z,11.85
2023-04-02T15:14:29.670Z,11.76
2023-04-02T15:17:01.095Z,11.67
2023-04-02T15:19:29.940Z,11.60
2023-04-02T15:22:14.465Z,11.54
2023-04-02T15:24:51.820Z,11.48
2023-04-02T15:27:44.912Z,11.42
2023-04-02T15:30:20.703Z,11.36
2023-04-02T15:32:53.017Z,11.29
2023-04-02T15:35:29.348Z,11.23
2023-04-02T15:38:17.362Z,11.18
2023-04-02T15:40:52.620Z,11.13
2023-04-02T15:43:31.367Z,11.07
2023-04-02T15:46:22.327Z,11.02
2023-04-02T15:49:24.210Z,10.97
2023-04-02T15:51:58.508Z,10.91
2023-04-02T15:54:30.806Z,10.87
2023-04-02T15:57:21.352Z,10.82
2023-04-02T15:59:52.729Z,10.78
2023-04-02T16:02:39.204Z,10.75
2023-04-02T16:05:14.513Z,10.71
2023-04-02T16:08:02.369Z,10.68
2023-04-02T16:10:43.037Z,10.65
2023-04-02T16:13:29.269Z,10.61
2023-04-02T16:16:03.980Z,10.58
2023-04-02T16:19:16.150Z,10.55
2023-04-02T16:22:07.081Z,10.50
2023-04-02T16:24:37.650Z,10.45
2023-04-02T16:27:09.098Z,10.41
2023-04-02T16:29:51.175Z,10.39
2023-04-02T16:32:25.183Z,10.37
2023-04-02T16:35:12.947Z,10.36
2023-04-02T16:37:58.457Z,10.35
2023-04-02T16:40:30.057Z,10.33
2023-04-02T16:43:02.327Z,10.30
2023-04-02T16:45:43.310Z,10.27
2023-04-02T16:48:32.087Z,10.26
2023-04-02T16:51:37.072Z,10.26
2023-04-02T16:54:14.600Z,10.24
2023-04-02T16:56:56.019Z,10.22
2023-04-02T16:59:33.324Z,10.20
2023-04-02T17:02:01.604Z,10.17
2023-04-02T17:04:36.239Z,10.13
2023-04-02T17:07:17.532Z,10.11
2023-04-02T17:09:51.705Z,10.08
2023-04-02T17:12:31.761Z,10.05
2023-04-02T17:15:04.600Z,10.00
2023-04-02T17:17:35.526Z,9.94
2023-04-02T17:20:07.152Z,9.93
2023-04-02T17:22:35.517Z,9.91
2023-04-02T17:25:04.485Z,9.89
2023-04-02T17:27:36.761Z,9.87
2023-04-02T17:30:15.531Z,9.83
2023-04-02T17:32:45.461Z,9.75
2023-04-02T17:35:18.036Z,9.61
2023-04-02T17:38:21.608Z,9.42
2023-04-02T17:41:09.747Z,9.27
2023-04-02T17:43:46.275Z,9.20
2023-04-02T17:46:35.870Z,9.19
2023-04-02T17:49:16.786Z,9.19
2023-04-02T17:51:55.324Z,9.17
2023-04-02T17:54:51.785Z,9.17
2023-04-02T17:57:30.081Z,9.17
2023-04-02T18:00:19.922Z,9.18
2023-04-02T18:03:06.269Z,9.19
2023-04-02T18:05:43.714Z,9.23
2023-04-02T18:09:04.528Z,9.23
2023-04-02T18:12:17.846Z,9.24
2023-04-02T18:15:04.099Z,9.25
2023-04-02T18:17:51.750Z,9.22
2023-04-02T18:20:39.385Z,9.19
2023-04-02T18:23:34.984Z,9.16
2023-04-02T18:26:39.917Z,9.16
2023-04-02T18:29:35.891Z,9.16
2023-04-02T18:32:13.112Z,9.15
2023-04-02T18:35:09.016Z,9.14
2023-04-02T18:37:59.371Z,9.18
2023-04-02T18:40:30.822Z,9.24
2023-04-02T18:43:19.369Z,9.27
2023-04-02T18:46:20.618Z,9.24
2023-04-02T18:49:27.855Z,9.19
2023-04-02T18:52:01.619Z,9.10
2023-04-02T18:54:34.825Z,9.03
2023-04-02T18:57:12.135Z,8.95
2023-04-02T18:59:51.461Z,8.88
2023-04-02T19:02:40.732Z,8.78
2023-04-02T19:05:44.768Z,8.62
2023-04-02T19:08:18.331Z,8.48
2023-04-02T19:10:48.354Z,8.42
2023-04-02T19:13:23.769Z,8.39
2023-04-02T19:15:58.489Z,8.37
2023-04-02T19:18:56.886Z,8.38
2023-04-02T19:22:00.669Z,8.42
2023-04-02T19:24:38.709Z,8.52
2023-04-02T19:27:27.328Z,8.57
2023-04-02T19:30:11.799Z,8.57
2023-04-02T19:32:50.070Z,8.57
2023-04-02T19:35:21.268Z,8.58
2023-04-02T19:38:13.311Z,8.62
2023-04-02T19:40:53.920Z,8.67
2023-04-02T19:43:22.143Z,8.72
2023-04-02T19:45:50.371Z,8.75
2023-04-02T19:48:21.863Z,8.76
2023-04-02T19:50:50.939Z,8.77
2023-04-02T19:53:19.549Z,8.79
2023-04-02T19:55:47.987Z,8.77
2023-04-02T19:58:20.037Z,8.74
2023-04-02T20:00:48.520Z,8.71
2023-04-02T20:03:17.094Z,8.68
2023-04-02T20:05:47.689Z,8.65
2023-04-02T20:08:17.357Z,8.63
2023-04-02T20:10:46.631Z,8.62
2023-04-02T20:13:15.692Z,8.61
2023-04-02T20:15:45.220Z,8.62
2023-04-02T20:18:13.479Z,8.64
2023-04-02T20:20:41.974Z,8.64
2023-04-02T20:23:11.334Z,8.65
2023-04-02T20:25:47.681Z,8.67
2023-04-02T20:28:16.614Z,8.71
2023-04-02T20:30:45.303Z,8.75
2023-04-02T20:33:13.749Z,8.79
2023-04-02T20:35:42.984Z,8.82
2023-04-02T20:38:11.864Z,8.83
2023-04-02T20:40:41.585Z,8.84
2023-04-02T20:43:10.872Z,8.83
2023-04-02T20:45:39.255Z,8.82
2023-04-02T20:48:07.709Z,8.79
2023-04-02T20:50:36.380Z,8.77
2023-04-02T20:53:04.627Z,8.77
2023-04-02T20:55:33.074Z,8.77
2023-04-02T20:58:01.738Z,8.80
2023-04-02T21:00:30.478Z,8.78
2023-04-02T21:04:43.442Z,8.78
2023-04-02T21:07:12.253Z,8.73
2023-04-02T21:09:40.961Z,8.71
2023-04-02T21:12:09.441Z,8.67
2023-04-02T21:14:40.182Z,8.63
2023-04-02T21:17:08.720Z,8.60
2023-04-02T21:19:37.996Z,8.56
2023-04-02T21:22:06.389Z,8.52
2023-04-02T21:24:35.240Z,8.52
2023-04-02T21:27:03.803Z,8.51
2023-04-02T21:29:33.309Z,8.50
2023-04-02T21:32:08.318Z,8.50
2023-04-02T21:34:43.079Z,8.50
2023-04-02T21:37:11.757Z,8.51
2023-04-02T21:39:40.725Z,8.50
2023-04-02T21:42:11.374Z,8.48
2023-04-02T21:44:39.970Z,8.46
2023-04-02T21:47:08.396Z,8.45
2023-04-02T21:49:36.990Z,8.45
2023-04-02T21:52:05.567Z,8.47
2023-04-02T21:54:34.942Z,8.47
2023-04-02T21:57:04.360Z,8.45
2023-04-02T21:59:33.163Z,8.44
2023-04-02T22:02:02.024Z,8.44
2023-04-02T22:04:33.580Z,8.44
2023-04-02T22:07:02.707Z,8.45
2023-04-02T22:09:31.547Z,8.48
2023-04-02T22:12:02.198Z,8.50
2023-04-02T22:14:30.975Z,8.53
2023-04-02T22:16:59.627Z,8.55
2023-04-02T22:19:29.714Z,8.57
2023-04-02T22:21:58.159Z,8.59
2023-04-02T22:24:27.551Z,8.58
2023-04-02T22:26:57.778Z,8.57
2023-04-02T22:29:26.289Z,8.53
2023-04-02T22:31:55.546Z,8.51
2023-04-02T22:34:24.539Z,8.51
2023-04-02T22:36:53.570Z,8.51
2023-04-02T22:39:22.431Z,8.53
2023-04-02T22:41:50.926Z,8.53
2023-04-02T22:44:19.527Z,8.52
2023-04-02T22:46:47.991Z,8.51
2023-04-02T22:49:19.667Z,8.50
2023-04-02T22:51:48.465Z,8.49
2023-04-02T22:54:17.349Z,8.50
2023-04-02T22:56:45.934Z,8.52
2023-04-02T22:59:15.275Z,8.51
2023-04-02T23:01:43.814Z,8.52
2023-04-02T23:04:12.404Z,8.51
2023-04-02T23:06:41.385Z,8.49
2023-04-02T23:09:11.150Z,8.50
2023-04-02T23:11:42.101Z,8.52
2023-04-02T23:14:11.301Z,8.51
2023-04-02T23:16:39.994Z,8.50
2023-04-02T23:19:09.410Z,8.48
2023-04-02T23:21:39.447Z,8.46
2023-04-02T23:24:14.248Z,8.44
2023-04-02T23:26:42.826Z,8.42
2023-04-02T23:29:11.827Z,8.42
2023-04-02T23:31:40.602Z,8.41
2023-04-02T23:34:09.624Z,8.42
2023-04-02T23:36:38.223Z,8.42
2023-04-02T23:39:10.665Z,8.38
2023-04-02T23:41:41.084Z,8.36
2023-04-02T23:44:09.928Z,8.35
2023-04-02T23:46:38.638Z,8.35
2023-04-02T23:49:07.443Z,8.34
2023-04-02T23:51:37.877Z,8.32
2023-04-02T23:54:06.466Z,8.31
2023-04-02T23:56:35.554Z,8.29
2023-04-02T23:59:04.574Z,8.32
